Decoded Metar for KCAG (CRAIG in CO, USA) (IATA:CAG) | Meteo·Mobile Aviation Weather
aviador You're here:

KCAG Decoded Metar

CRAIG in CO, USA
Report Time2019-06-18 14:53:00
UTC Time2019-06-18 15:07:50
Flight Rules vfr VFR
WindCalm
Visibility9999 m
Phenomena:N/A
Clouds:Broken 060 Hf
Overcast 100 Hf
Expected CloudBase > 800 ft AGL from Temp-Dew spread
Ceiling6,000 ft
Temp13°C (ISA +10)
Dew Point11°C (88% RH)
QNH1022 hPa
Density Alt7,290 ft
Elevation6,191 ft
Report Wrong Elevation
Raw Report
KCAG 181453Z AUTO 00000KT 10SM BKN060 OVC100 13/11 A3019 RMK AO2
RAE18 SLP172 P0000 60001 T01280106 51007=

Extra information for KCAG:More info

Metar Taf Metar & Taf Last 4 Metars F.Rules Stats Wind Profile Meteogram Temp Stats Airport Information Weather charts Add Link Nearby VenuesMetar ALERT Operation Metar Decoded Social comments

AIRNAV info for KCAG